createdAt,value
2018-02-16T00:00:04.673Z,992.17
2018-02-16T00:01:04.592Z,992.17
2018-02-16T00:02:04.512Z,992.16
2018-02-16T00:03:04.431Z,992.18
2018-02-16T00:04:04.350Z,992.19
2018-02-16T00:05:04.267Z,992.15
2018-02-16T00:06:04.187Z,992.18
2018-02-16T00:07:04.107Z,992.20
2018-02-16T00:08:04.026Z,992.21
2018-02-16T00:09:03.944Z,992.21
2018-02-16T00:10:03.863Z,992.27
2018-02-16T00:11:03.782Z,992.25
2018-02-16T00:12:03.701Z,992.26
2018-02-16T00:13:03.620Z,992.31
2018-02-16T00:14:03.538Z,992.35
2018-02-16T00:15:03.458Z,992.43
2018-02-16T00:16:03.377Z,992.43
2018-02-16T00:17:03.294Z,992.42
2018-02-16T00:18:03.214Z,992.47
2018-02-16T00:19:03.134Z,992.52
2018-02-16T00:20:03.052Z,992.50
2018-02-16T00:21:02.973Z,992.50
2018-02-16T00:22:02.893Z,992.47
2018-02-16T00:23:02.808Z,992.50
2018-02-16T00:24:02.728Z,992.51
2018-02-16T00:25:02.647Z,992.50
2018-02-16T00:26:02.565Z,992.53
2018-02-16T00:27:02.485Z,992.50
2018-02-16T00:28:02.404Z,992.51
2018-02-16T00:29:02.322Z,992.50
2018-02-16T00:30:02.242Z,992.49
2018-02-16T00:31:02.161Z,992.53
2018-02-16T00:32:02.080Z,992.52
2018-02-16T00:33:01.998Z,992.50
2018-02-16T00:34:01.917Z,992.50
2018-02-16T00:35:01.835Z,992.46
2018-02-16T00:36:01.755Z,992.43
2018-02-16T00:37:01.672Z,992.36
2018-02-16T00:38:01.592Z,992.41
2018-02-16T00:39:01.512Z,992.43
2018-02-16T00:40:01.431Z,992.44
2018-02-16T00:41:01.348Z,992.45
2018-02-16T00:42:01.268Z,992.52
2018-02-16T00:43:01.195Z,992.55
2018-02-16T00:44:01.105Z,992.54
2018-02-16T00:45:01.024Z,992.55
2018-02-16T00:46:00.942Z,992.48
2018-02-16T00:47:00.861Z,992.51
2018-02-16T00:48:00.781Z,992.55
2018-02-16T00:49:00.699Z,992.56
2018-02-16T00:50:00.617Z,992.59
2018-02-16T00:51:00.537Z,992.58
2018-02-16T00:52:00.455Z,992.58
2018-02-16T00:53:00.374Z,992.60
2018-02-16T00:54:00.293Z,992.64
2018-02-16T00:55:00.212Z,992.63
2018-02-16T00:56:00.132Z,992.66
2018-02-16T00:57:00.049Z,992.71
2018-02-16T00:57:59.968Z,992.73
2018-02-16T00:58:59.886Z,992.79
2018-02-16T00:59:59.806Z,992.74
2018-02-16T01:00:59.724Z,992.72
2018-02-16T01:01:59.643Z,992.70
2018-02-16T01:02:59.562Z,992.67
2018-02-16T01:03:59.481Z,992.68
2018-02-16T01:04:59.400Z,992.69
2018-02-16T01:05:59.320Z,992.66
2018-02-16T01:06:59.238Z,992.73
2018-02-16T01:07:59.158Z,992.77
2018-02-16T01:08:59.076Z,992.83
2018-02-16T01:09:59.001Z,992.83
2018-02-16T01:10:58.914Z,992.84
2018-02-16T01:11:58.833Z,992.85
2018-02-16T01:12:58.752Z,992.87
2018-02-16T01:13:58.671Z,992.89
2018-02-16T01:14:58.590Z,992.89
2018-02-16T01:15:58.508Z,992.91
2018-02-16T01:16:58.428Z,992.90
2018-02-16T01:17:58.348Z,992.89
2018-02-16T01:18:58.266Z,992.88
2018-02-16T01:19:58.185Z,992.91
2018-02-16T01:20:58.105Z,992.94
2018-02-16T01:21:58.022Z,993.01
2018-02-16T01:22:57.942Z,993.03
2018-02-16T01:23:57.860Z,993.03
2018-02-16T01:24:57.779Z,993.07
2018-02-16T01:25:57.699Z,993.06
2018-02-16T01:26:57.616Z,993.03
2018-02-16T01:27:57.538Z,992.99
2018-02-16T01:28:57.455Z,992.92
2018-02-16T01:29:57.374Z,992.85
2018-02-16T01:30:57.293Z,992.80
2018-02-16T01:31:57.213Z,992.77
2018-02-16T01:32:57.130Z,992.85
2018-02-16T01:33:57.049Z,992.89
2018-02-16T01:34:56.969Z,992.95
2018-02-16T01:35:56.889Z,992.95
2018-02-16T01:36:56.805Z,992.98
2018-02-16T01:37:56.725Z,993.04
2018-02-16T01:38:56.644Z,993.05
2018-02-16T01:39:56.564Z,993.08
2018-02-16T01:40:56.482Z,993.12
2018-02-16T01:41:56.400Z,993.11
2018-02-16T01:42:56.319Z,993.05
2018-02-16T01:43:56.239Z,993.10
2018-02-16T01:44:56.158Z,993.08
2018-02-16T01:45:56.077Z,993.10
2018-02-16T01:46:55.996Z,993.14
2018-02-16T01:47:55.915Z,993.11
2018-02-16T01:48:55.833Z,993.11
2018-02-16T01:49:55.752Z,993.13
2018-02-16T01:50:55.672Z,993.18
2018-02-16T01:51:55.591Z,993.24
2018-02-16T01:52:55.509Z,993.23
2018-02-16T01:53:55.427Z,993.30
2018-02-16T01:54:55.350Z,993.28
2018-02-16T01:55:55.269Z,993.29
2018-02-16T01:56:55.186Z,993.27
2018-02-16T01:57:55.105Z,993.32
2018-02-16T01:58:55.025Z,993.29
2018-02-16T01:59:54.944Z,993.25
2018-02-16T02:00:54.862Z,993.26
2018-02-16T02:01:54.781Z,993.31
2018-02-16T02:02:54.701Z,993.29
2018-02-16T02:03:54.620Z,993.28
2018-02-16T02:04:54.544Z,993.26
2018-02-16T02:05:54.458Z,993.26
2018-02-16T02:06:54.377Z,993.25
2018-02-16T02:07:54.296Z,993.24
2018-02-16T02:08:54.214Z,993.25
2018-02-16T02:09:54.134Z,993.31
2018-02-16T02:10:54.053Z,993.34
2018-02-16T02:11:53.973Z,993.41
2018-02-16T02:12:53.891Z,993.42
2018-02-16T02:13:53.810Z,993.39
2018-02-16T02:14:53.730Z,993.45
2018-02-16T02:15:53.650Z,993.40
2018-02-16T02:16:53.568Z,993.34
2018-02-16T02:17:53.488Z,993.35
2018-02-16T02:18:53.406Z,993.37
2018-02-16T02:19:53.325Z,993.38
2018-02-16T02:20:53.244Z,993.39
2018-02-16T02:21:53.164Z,993.42
2018-02-16T02:22:53.086Z,993.49
2018-02-16T02:23:53.002Z,993.53
2018-02-16T02:24:52.921Z,993.52
2018-02-16T02:25:52.840Z,993.56
2018-02-16T02:26:52.759Z,993.54
2018-02-16T02:27:52.677Z,993.57
2018-02-16T02:28:52.596Z,993.52
2018-02-16T02:29:52.516Z,993.47
2018-02-16T02:30:52.435Z,993.48
2018-02-16T02:31:52.355Z,993.42
2018-02-16T02:32:52.272Z,993.41
2018-02-16T02:33:52.192Z,993.41
2018-02-16T02:34:52.110Z,993.41
2018-02-16T02:35:52.031Z,993.40
2018-02-16T02:36:51.947Z,993.42
2018-02-16T02:37:51.872Z,993.44
2018-02-16T02:38:51.786Z,993.53
2018-02-16T02:39:51.706Z,993.61
2018-02-16T02:40:51.624Z,993.63
2018-02-16T02:41:51.545Z,993.69
2018-02-16T02:42:51.467Z,993.64
2018-02-16T02:43:51.382Z,993.60
2018-02-16T02:44:52.200Z,993.57
2018-02-16T02:45:51.220Z,993.58
2018-02-16T02:46:51.139Z,993.61
2018-02-16T02:47:51.057Z,993.61
2018-02-16T02:48:50.977Z,993.62
2018-02-16T02:49:50.896Z,993.63
2018-02-16T02:50:50.814Z,993.63
2018-02-16T02:51:50.735Z,993.72
2018-02-16T02:52:50.653Z,993.73
2018-02-16T02:53:50.572Z,993.76
2018-02-16T02:54:50.491Z,993.72
2018-02-16T02:55:50.411Z,993.73
2018-02-16T02:56:50.329Z,993.72
2018-02-16T02:57:50.248Z,993.74
2018-02-16T02:58:50.167Z,993.77
2018-02-16T02:59:50.093Z,993.78
2018-02-16T03:00:50.007Z,993.73
2018-02-16T03:01:49.924Z,993.68
2018-02-16T03:02:49.845Z,993.72
2018-02-16T03:03:49.763Z,993.66
2018-02-16T03:04:49.681Z,993.66
2018-02-16T03:05:49.600Z,993.68
2018-02-16T03:06:49.523Z,993.75
2018-02-16T03:07:49.439Z,993.79
2018-02-16T03:08:49.358Z,993.80
2018-02-16T03:09:49.277Z,993.80
2018-02-16T03:10:49.196Z,993.79
2018-02-16T03:11:49.115Z,993.72
2018-02-16T03:12:49.034Z,993.69
2018-02-16T03:13:48.952Z,993.72
2018-02-16T03:14:48.873Z,993.77
2018-02-16T03:15:48.791Z,993.80
2018-02-16T03:16:48.710Z,993.86
2018-02-16T03:17:48.629Z,993.87
2018-02-16T03:18:48.548Z,994.00
2018-02-16T03:19:48.467Z,994.00
2018-02-16T03:20:48.385Z,994.04
2018-02-16T03:21:48.304Z,994.07
2018-02-16T03:22:48.224Z,994.06
2018-02-16T03:23:48.142Z,994.06
2018-02-16T03:24:48.063Z,994.05
2018-02-16T03:25:47.979Z,994.08
2018-02-16T03:26:47.899Z,994.09
2018-02-16T03:27:47.817Z,994.07
2018-02-16T03:28:47.736Z,994.10
2018-02-16T03:29:47.656Z,994.06
2018-02-16T03:30:47.577Z,994.14
2018-02-16T03:31:47.492Z,994.19
2018-02-16T03:32:47.411Z,994.18
2018-02-16T03:33:47.330Z,994.23
2018-02-16T03:34:47.249Z,994.23
2018-02-16T03:35:47.168Z,994.22
2018-02-16T03:36:47.088Z,994.25
2018-02-16T03:37:47.006Z,994.24
2018-02-16T03:38:46.924Z,994.24
2018-02-16T03:39:46.844Z,994.28
2018-02-16T03:40:46.761Z,994.32
2018-02-16T03:41:46.680Z,994.30
2018-02-16T03:42:46.600Z,994.38
2018-02-16T03:43:46.517Z,994.39
2018-02-16T03:44:46.437Z,994.49
2018-02-16T03:45:46.355Z,994.52
2018-02-16T03:46:46.274Z,994.53
2018-02-16T03:47:46.192Z,994.55
2018-02-16T03:48:46.112Z,994.61
2018-02-16T03:49:46.031Z,994.54
2018-02-16T03:50:45.952Z,994.58
2018-02-16T03:51:45.868Z,994.59
2018-02-16T03:52:45.786Z,994.57
2018-02-16T03:53:45.705Z,994.53
2018-02-16T03:54:45.624Z,994.53
2018-02-16T03:55:45.543Z,994.53
2018-02-16T03:56:45.460Z,994.58
2018-02-16T03:57:45.380Z,994.58
2018-02-16T03:58:45.301Z,994.66
2018-02-16T03:59:45.217Z,994.67
2018-02-16T04:00:45.136Z,994.64
2018-02-16T04:01:45.053Z,994.69
2018-02-16T04:02:44.974Z,994.72
2018-02-16T04:03:44.892Z,994.75
2018-02-16T04:04:44.810Z,994.74
2018-02-16T04:05:44.729Z,994.80
2018-02-16T04:06:44.648Z,994.81
2018-02-16T04:07:44.566Z,994.83
2018-02-16T04:08:44.486Z,994.88
2018-02-16T04:09:44.404Z,994.89
2018-02-16T04:10:44.322Z,994.91
2018-02-16T04:11:44.241Z,994.95
2018-02-16T04:12:44.159Z,994.95
2018-02-16T04:13:44.079Z,995.00
2018-02-16T04:14:43.997Z,995.03
2018-02-16T04:15:43.915Z,995.02
2018-02-16T04:16:43.837Z,994.97
2018-02-16T04:17:43.752Z,994.99
2018-02-16T04:18:43.672Z,994.96
2018-02-16T04:19:43.590Z,995.05
2018-02-16T04:20:43.511Z,995.05
2018-02-16T04:21:43.428Z,995.02
2018-02-16T04:22:43.346Z,995.11
2018-02-16T04:23:43.265Z,995.11
2018-02-16T04:24:43.183Z,995.10
2018-02-16T04:25:43.102Z,995.11
2018-02-16T04:26:43.021Z,995.16
2018-02-16T04:27:42.938Z,995.17
2018-02-16T04:28:42.857Z,995.20
2018-02-16T04:29:42.776Z,995.20
2018-02-16T04:30:42.695Z,995.24
2018-02-16T04:31:42.616Z,995.25
2018-02-16T04:32:42.532Z,995.24
2018-02-16T04:33:42.451Z,995.28
2018-02-16T04:34:42.372Z,995.29
2018-02-16T04:35:42.288Z,995.28
2018-02-16T04:36:42.207Z,995.23
2018-02-16T04:37:42.125Z,995.25
2018-02-16T04:38:42.044Z,995.27
2018-02-16T04:39:41.963Z,995.33
2018-02-16T04:40:41.881Z,995.34
2018-02-16T04:41:41.799Z,995.32
2018-02-16T04:42:41.718Z,995.32
2018-02-16T04:43:41.637Z,995.35
2018-02-16T04:44:41.555Z,995.30
2018-02-16T04:45:41.474Z,995.33
2018-02-16T04:46:41.392Z,995.38
2018-02-16T04:47:41.311Z,995.39
2018-02-16T04:48:41.231Z,995.39
2018-02-16T04:49:41.147Z,995.42
2018-02-16T04:50:41.066Z,995.40
2018-02-16T04:51:40.984Z,995.44
2018-02-16T04:52:40.902Z,995.44
2018-02-16T04:53:40.823Z,995.42
2018-02-16T04:54:40.740Z,995.44
2018-02-16T04:55:40.657Z,995.50
2018-02-16T04:56:40.576Z,995.47
2018-02-16T04:57:40.494Z,995.50
2018-02-16T04:58:40.413Z,995.40
2018-02-16T04:59:40.332Z,995.46
2018-02-16T05:00:40.248Z,995.48
2018-02-16T05:01:40.168Z,995.47
2018-02-16T05:02:40.086Z,995.47
2018-02-16T05:03:40.005Z,995.45
2018-02-16T05:04:39.922Z,995.47
2018-02-16T05:05:39.840Z,995.47
2018-02-16T05:06:39.759Z,995.46
2018-02-16T05:07:39.678Z,995.46
2018-02-16T05:08:39.595Z,995.41
2018-02-16T05:09:39.513Z,995.43
2018-02-16T05:10:39.432Z,995.43
2018-02-16T05:11:39.350Z,995.38
2018-02-16T05:12:39.270Z,995.39
2018-02-16T05:13:39.186Z,995.38
2018-02-16T05:14:39.103Z,995.48
2018-02-16T05:15:39.022Z,995.56
2018-02-16T05:16:38.939Z,995.56
2018-02-16T05:17:38.858Z,995.57
2018-02-16T05:18:38.774Z,995.58
2018-02-16T05:19:38.692Z,995.60
2018-02-16T05:20:38.610Z,995.61
2018-02-16T05:21:38.528Z,995.63
2018-02-16T05:22:38.446Z,995.59
2018-02-16T05:23:38.363Z,995.57
2018-02-16T05:24:38.281Z,995.56
2018-02-16T05:25:38.198Z,995.57
2018-02-16T05:26:38.117Z,995.66
2018-02-16T05:27:38.034Z,995.72
2018-02-16T05:28:37.950Z,995.76
2018-02-16T05:29:37.868Z,995.76
2018-02-16T05:30:37.785Z,995.79
2018-02-16T05:31:37.704Z,995.77
2018-02-16T05:32:37.620Z,995.79
2018-02-16T05:33:37.539Z,995.79
2018-02-16T05:34:37.456Z,995.78
2018-02-16T05:35:37.374Z,995.87
2018-02-16T05:36:37.290Z,995.87
2018-02-16T05:37:37.207Z,995.92
2018-02-16T05:38:37.129Z,995.94
2018-02-16T05:39:37.045Z,995.94
2018-02-16T05:40:36.959Z,995.94
2018-02-16T05:41:36.878Z,995.98
2018-02-16T05:42:36.795Z,995.99
2018-02-16T05:43:36.713Z,995.95
2018-02-16T05:44:36.629Z,995.94
2018-02-16T05:45:36.547Z,995.90
2018-02-16T05:46:36.464Z,995.89
2018-02-16T05:47:36.383Z,995.88
2018-02-16T05:48:36.299Z,995.79
2018-02-16T05:49:36.216Z,995.81
2018-02-16T05:50:36.134Z,995.81
2018-02-16T05:51:36.052Z,995.86
2018-02-16T05:52:35.967Z,995.93
2018-02-16T05:53:35.886Z,995.96
2018-02-16T05:54:35.805Z,995.90
2018-02-16T05:55:35.721Z,995.90
2018-02-16T05:56:35.643Z,995.94
2018-02-16T05:57:35.557Z,995.94
2018-02-16T05:58:35.474Z,995.94
2018-02-16T05:59:35.391Z,995.96
2018-02-16T06:00:35.308Z,995.99
2018-02-16T06:01:35.226Z,996.05
2018-02-16T06:02:35.143Z,996.06
2018-02-16T06:03:35.061Z,996.11
2018-02-16T06:04:34.979Z,996.13
2018-02-16T06:05:34.896Z,996.20
2018-02-16T06:06:34.813Z,996.19
2018-02-16T06:07:34.733Z,996.20
2018-02-16T06:08:34.648Z,996.22
2018-02-16T06:09:34.565Z,996.23
2018-02-16T06:10:34.485Z,996.22
2018-02-16T06:11:34.401Z,996.25
2018-02-16T06:12:34.317Z,996.34
2018-02-16T06:13:34.235Z,996.32
2018-02-16T06:14:34.153Z,996.35
2018-02-16T06:15:34.070Z,996.33
2018-02-16T06:16:33.987Z,996.40
2018-02-16T06:17:33.905Z,996.36
2018-02-16T06:18:33.822Z,996.38
2018-02-16T06:19:33.740Z,996.45
2018-02-16T06:20:33.657Z,996.39
2018-02-16T06:21:33.575Z,996.44
2018-02-16T06:22:33.492Z,996.46
2018-02-16T06:23:33.410Z,996.45
2018-02-16T06:24:33.327Z,996.47
2018-02-16T06:25:33.244Z,996.44
2018-02-16T06:26:33.161Z,996.44
2018-02-16T06:27:33.080Z,996.47
2018-02-16T06:28:32.999Z,996.51
2018-02-16T06:29:32.914Z,996.54
2018-02-16T06:30:32.831Z,996.55
2018-02-16T06:31:32.749Z,996.58
2018-02-16T06:32:32.665Z,996.62
2018-02-16T06:33:32.583Z,996.63
2018-02-16T06:34:32.501Z,996.61
2018-02-16T06:35:32.418Z,996.67
2018-02-16T06:36:32.335Z,996.63
2018-02-16T06:37:32.253Z,996.64
2018-02-16T06:38:32.170Z,996.62
2018-02-16T06:39:32.088Z,996.63
2018-02-16T06:40:32.004Z,996.63
2018-02-16T06:41:31.922Z,996.64
2018-02-16T06:42:31.839Z,996.65
2018-02-16T06:43:31.756Z,996.68
2018-02-16T06:44:31.672Z,996.65
2018-02-16T06:45:31.623Z,996.66
2018-02-16T06:46:31.508Z,996.64
2018-02-16T06:47:31.424Z,996.67
2018-02-16T06:48:31.342Z,996.70
2018-02-16T06:49:31.258Z,996.75
2018-02-16T06:50:31.178Z,996.75
2018-02-16T06:51:31.095Z,996.74
2018-02-16T06:52:31.009Z,996.71
2018-02-16T06:53:30.928Z,996.71
2018-02-16T06:54:30.850Z,996.76
2018-02-16T06:55:30.762Z,996.78
2018-02-16T06:56:30.678Z,996.77
2018-02-16T06:57:30.595Z,996.72
2018-02-16T06:58:30.512Z,996.79
2018-02-16T06:59:30.428Z,996.78
2018-02-16T07:00:30.346Z,996.79
2018-02-16T07:01:30.263Z,996.78
2018-02-16T07:02:30.181Z,996.82
2018-02-16T07:03:30.098Z,996.85
2018-02-16T07:04:30.015Z,996.85
2018-02-16T07:05:29.932Z,996.90
2018-02-16T07:06:29.850Z,996.94
2018-02-16T07:07:29.807Z,996.93
2018-02-16T07:08:29.685Z,996.94
2018-02-16T07:09:29.600Z,996.95
2018-02-16T07:10:29.518Z,997.01
2018-02-16T07:11:29.435Z,997.05
2018-02-16T07:12:29.352Z,997.04
2018-02-16T07:13:29.269Z,997.05
2018-02-16T07:14:29.186Z,997.10
2018-02-16T07:15:29.104Z,997.11
2018-02-16T07:16:29.020Z,997.13
2018-02-16T07:17:28.937Z,997.16
2018-02-16T07:18:28.855Z,997.15
2018-02-16T07:19:28.772Z,997.18
2018-02-16T07:20:28.689Z,997.21
2018-02-16T07:21:28.607Z,997.20
2018-02-16T07:22:28.524Z,997.24
2018-02-16T07:23:28.443Z,997.27
2018-02-16T07:24:28.358Z,997.28
2018-02-16T07:25:28.277Z,997.30
2018-02-16T07:26:28.194Z,997.30
2018-02-16T07:27:28.112Z,997.31
2018-02-16T07:28:28.029Z,997.29
2018-02-16T07:29:27.949Z,997.28
2018-02-16T07:30:27.863Z,997.31
2018-02-16T07:31:27.782Z,997.34
2018-02-16T07:32:27.698Z,997.32
2018-02-16T07:33:27.616Z,997.33
2018-02-16T07:34:27.534Z,997.34
2018-02-16T07:35:27.452Z,997.34
2018-02-16T07:36:27.369Z,997.35
2018-02-16T07:37:27.287Z,997.34
2018-02-16T07:38:27.208Z,997.40
2018-02-16T07:39:27.123Z,997.38
2018-02-16T07:40:27.041Z,997.37
2018-02-16T07:41:26.958Z,997.38
2018-02-16T07:42:26.876Z,997.36
2018-02-16T07:43:26.794Z,997.42
2018-02-16T07:44:26.712Z,997.37
2018-02-16T07:45:26.630Z,997.42
2018-02-16T07:46:26.547Z,997.45
2018-02-16T07:47:26.465Z,997.42
2018-02-16T07:48:26.389Z,997.46
2018-02-16T07:49:26.302Z,997.49
2018-02-16T07:50:26.220Z,997.48
2018-02-16T07:51:26.137Z,997.52
2018-02-16T07:52:26.056Z,997.52
2018-02-16T07:53:25.974Z,997.53
2018-02-16T07:54:25.893Z,997.52
2018-02-16T07:55:25.812Z,997.54
2018-02-16T07:56:25.728Z,997.59
2018-02-16T07:57:25.651Z,997.58
2018-02-16T07:58:25.565Z,997.58
2018-02-16T07:59:25.485Z,997.59
2018-02-16T08:00:25.487Z,997.62
2018-02-16T08:01:25.321Z,997.61
2018-02-16T08:02:25.240Z,997.60
2018-02-16T08:03:25.158Z,997.63
2018-02-16T08:04:25.077Z,997.64
2018-02-16T08:05:24.995Z,997.66
2018-02-16T08:06:24.914Z,997.68
2018-02-16T08:07:24.833Z,997.70
2018-02-16T08:08:24.756Z,997.74
2018-02-16T08:09:24.672Z,997.74
2018-02-16T08:10:24.589Z,997.75
2018-02-16T08:11:24.508Z,997.78
2018-02-16T08:12:24.426Z,997.82
2018-02-16T08:13:24.345Z,997.88
2018-02-16T08:14:24.263Z,997.91
2018-02-16T08:15:24.183Z,997.91
2018-02-16T08:16:24.101Z,997.92
2018-02-16T08:17:24.023Z,997.93
2018-02-16T08:18:23.939Z,997.91
2018-02-16T08:19:23.857Z,997.92
2018-02-16T08:20:23.777Z,997.95
2018-02-16T08:21:23.695Z,997.97
2018-02-16T08:22:23.614Z,997.93
2018-02-16T08:23:23.535Z,997.99
2018-02-16T08:24:23.453Z,997.98
2018-02-16T08:25:23.373Z,997.95
2018-02-16T08:26:23.292Z,998.00
2018-02-16T08:27:23.211Z,998.01
2018-02-16T08:28:23.130Z,998.05
2018-02-16T08:29:23.048Z,998.05
2018-02-16T08:30:22.969Z,998.09
2018-02-16T08:31:22.901Z,998.14
2018-02-16T08:32:22.806Z,998.17
2018-02-16T08:33:22.725Z,998.19
2018-02-16T08:34:22.656Z,998.23
2018-02-16T08:35:22.564Z,998.24
2018-02-16T08:36:22.483Z,998.26
2018-02-16T08:37:22.403Z,998.27
2018-02-16T08:38:22.322Z,998.29
2018-02-16T08:39:22.242Z,998.31
2018-02-16T08:40:22.161Z,998.32
2018-02-16T08:41:22.080Z,998.32
2018-02-16T08:42:22.001Z,998.34
2018-02-16T08:43:21.919Z,998.35
2018-02-16T08:44:21.838Z,998.36
2018-02-16T08:45:21.759Z,998.40
2018-02-16T08:46:21.679Z,998.35
2018-02-16T08:47:21.599Z,998.39
2018-02-16T08:48:21.517Z,998.41
2018-02-16T08:49:21.436Z,998.39
2018-02-16T08:50:21.356Z,998.46
2018-02-16T08:51:21.276Z,998.44
2018-02-16T08:52:21.195Z,998.47
2018-02-16T08:53:21.114Z,998.46
2018-02-16T08:54:21.035Z,998.44
2018-02-16T08:55:20.954Z,998.46
2018-02-16T08:56:20.871Z,998.44
2018-02-16T08:57:20.797Z,998.48
2018-02-16T08:58:20.712Z,998.47
2018-02-16T08:59:20.635Z,998.50
2018-02-16T09:00:20.551Z,998.53
2018-02-16T09:01:20.470Z,998.58
2018-02-16T09:02:20.390Z,998.54
2018-02-16T09:03:20.311Z,998.58
2018-02-16T09:04:20.229Z,998.59
2018-02-16T09:05:20.149Z,998.62
2018-02-16T09:06:20.068Z,998.66
2018-02-16T09:07:19.989Z,998.70
2018-02-16T09:08:19.908Z,998.73
2018-02-16T09:09:19.828Z,998.73
2018-02-16T09:10:19.748Z,998.74
2018-02-16T09:11:19.670Z,998.78
2018-02-16T09:12:19.589Z,998.78
2018-02-16T09:13:19.508Z,998.75
2018-02-16T09:14:19.429Z,998.76
2018-02-16T09:15:19.349Z,998.79
2018-02-16T09:16:19.268Z,998.78
2018-02-16T09:17:19.189Z,998.77
2018-02-16T09:18:19.109Z,998.81
2018-02-16T09:19:19.031Z,998.79
2018-02-16T09:20:18.950Z,998.78
2018-02-16T09:21:18.870Z,998.80
2018-02-16T09:22:18.790Z,998.82
2018-02-16T09:23:18.711Z,998.82
2018-02-16T09:24:18.631Z,998.83
2018-02-16T09:25:18.552Z,998.87
2018-02-16T09:26:18.472Z,998.87
2018-02-16T09:27:18.393Z,998.91
2018-02-16T09:28:18.312Z,998.90
2018-02-16T09:29:18.233Z,998.90
2018-02-16T09:30:18.156Z,998.95
2018-02-16T09:31:18.074Z,998.98
2018-02-16T09:32:17.994Z,999.02
2018-02-16T09:33:17.915Z,998.99
2018-02-16T09:34:17.835Z,999.02
2018-02-16T09:35:17.757Z,999.03
2018-02-16T09:36:17.676Z,999.10
2018-02-16T09:37:17.597Z,999.09
2018-02-16T09:38:17.517Z,999.05
2018-02-16T09:39:17.438Z,999.10
2018-02-16T09:40:17.357Z,999.09
2018-02-16T09:41:17.278Z,999.11
2018-02-16T09:42:17.198Z,999.12
2018-02-16T09:43:17.118Z,999.13
2018-02-16T09:44:17.038Z,999.13
2018-02-16T09:45:16.959Z,999.10
2018-02-16T09:46:16.879Z,999.12
2018-02-16T09:47:16.799Z,999.13
2018-02-16T09:48:16.719Z,999.12
2018-02-16T09:49:16.640Z,999.11
2018-02-16T09:50:16.560Z,999.15
2018-02-16T09:51:16.480Z,999.14
2018-02-16T09:52:16.400Z,999.15
2018-02-16T09:53:16.320Z,999.17
2018-02-16T09:54:16.241Z,999.19
2018-02-16T09:55:16.162Z,999.23
2018-02-16T09:56:16.082Z,999.25
2018-02-16T09:57:16.002Z,999.26
2018-02-16T09:58:15.922Z,999.27
2018-02-16T09:59:15.843Z,999.28
2018-02-16T10:00:15.762Z,999.24
2018-02-16T10:01:15.682Z,999.23
2018-02-16T10:02:15.604Z,999.23
2018-02-16T10:03:15.524Z,999.27
2018-02-16T10:04:15.444Z,999.28
2018-02-16T10:05:15.364Z,999.26
2018-02-16T10:06:15.284Z,999.25
2018-02-16T10:07:15.226Z,999.30
2018-02-16T10:08:15.126Z,999.32
2018-02-16T10:09:15.045Z,999.33
2018-02-16T10:10:14.966Z,999.33
2018-02-16T10:11:14.889Z,999.34
2018-02-16T10:12:14.807Z,999.39
2018-02-16T10:13:14.728Z,999.36
2018-02-16T10:14:14.649Z,999.39
2018-02-16T10:15:14.570Z,999.37
2018-02-16T10:16:14.491Z,999.40
2018-02-16T10:17:14.412Z,999.45
2018-02-16T10:18:14.334Z,999.50
2018-02-16T10:19:14.255Z,999.49
2018-02-16T10:20:14.176Z,999.45
2018-02-16T10:21:14.097Z,999.47
2018-02-16T10:22:14.023Z,999.47
2018-02-16T10:23:13.940Z,999.48
2018-02-16T10:24:13.861Z,999.47
2018-02-16T10:25:13.783Z,999.45
2018-02-16T10:26:13.706Z,999.43
2018-02-16T10:27:13.626Z,999.40
2018-02-16T10:28:13.547Z,999.45
2018-02-16T10:29:13.468Z,999.46
2018-02-16T10:30:13.390Z,999.46
2018-02-16T10:31:13.311Z,999.45
2018-02-16T10:32:13.232Z,999.44
2018-02-16T10:33:13.153Z,999.47
2018-02-16T10:34:13.116Z,999.44
2018-02-16T10:35:12.995Z,999.46
2018-02-16T10:36:12.917Z,999.46
2018-02-16T10:37:12.836Z,999.43
2018-02-16T10:38:12.758Z,999.43
2018-02-16T10:39:12.679Z,999.45
2018-02-16T10:40:12.598Z,999.47
2018-02-16T10:41:12.522Z,999.45
2018-02-16T10:42:12.442Z,999.45
2018-02-16T10:43:12.362Z,999.45
2018-02-16T10:44:12.282Z,999.45
2018-02-16T10:45:12.204Z,999.44
2018-02-16T10:46:12.126Z,999.44
2018-02-16T10:47:12.048Z,999.41
2018-02-16T10:48:11.969Z,999.43
2018-02-16T10:49:11.891Z,999.40
2018-02-16T10:50:11.812Z,999.40
2018-02-16T10:51:11.734Z,999.42
2018-02-16T10:52:11.657Z,999.41
2018-02-16T10:53:11.577Z,999.42
2018-02-16T10:54:11.500Z,999.43
2018-02-16T10:55:11.422Z,999.44
2018-02-16T10:56:11.342Z,999.46
2018-02-16T10:57:11.264Z,999.50
2018-02-16T10:58:11.186Z,999.56
2018-02-16T10:59:11.108Z,999.51
2018-02-16T11:00:11.029Z,999.55
2018-02-16T11:01:10.951Z,999.58
2018-02-16T11:02:10.875Z,999.62
2018-02-16T11:03:10.795Z,999.54
2018-02-16T11:04:10.718Z,999.57
2018-02-16T11:05:10.640Z,999.53
2018-02-16T11:06:10.564Z,999.55
2018-02-16T11:07:10.487Z,999.55
2018-02-16T11:08:10.409Z,999.57
2018-02-16T11:09:10.332Z,999.61
2018-02-16T11:10:10.256Z,999.56
2018-02-16T11:11:10.180Z,999.59
2018-02-16T11:12:10.102Z,999.59
2018-02-16T11:13:10.026Z,999.62
2018-02-16T11:14:09.949Z,999.68
2018-02-16T11:15:09.874Z,999.71
2018-02-16T11:16:09.797Z,999.72
2018-02-16T11:17:09.720Z,999.70
2018-02-16T11:18:09.645Z,999.71
2018-02-16T11:19:09.568Z,999.68
2018-02-16T11:20:09.491Z,999.79
2018-02-16T11:21:09.417Z,999.69
2018-02-16T11:22:09.340Z,999.77
2018-02-16T11:23:09.269Z,999.77
2018-02-16T11:24:09.191Z,999.79
2018-02-16T11:25:09.116Z,999.81
2018-02-16T11:26:09.042Z,999.71
2018-02-16T11:27:08.968Z,999.73
2018-02-16T11:28:08.893Z,999.78
2018-02-16T11:29:08.819Z,999.75
2018-02-16T11:30:08.746Z,999.69
2018-02-16T11:31:08.674Z,999.67
2018-02-16T11:32:08.598Z,999.70
2018-02-16T11:33:08.526Z,999.68
2018-02-16T11:34:08.485Z,999.66
2018-02-16T11:35:08.382Z,999.71
2018-02-16T11:36:08.306Z,999.71
2018-02-16T11:37:08.234Z,999.77
2018-02-16T11:38:08.163Z,999.75
2018-02-16T11:39:08.090Z,999.78
2018-02-16T11:40:08.017Z,999.78
2018-02-16T11:41:07.945Z,999.75
2018-02-16T11:42:07.874Z,999.77
2018-02-16T11:43:07.803Z,999.75
2018-02-16T11:44:07.732Z,999.89
2018-02-16T11:45:07.660Z,1000.02
2018-02-16T11:46:07.590Z,1000.03
2018-02-16T11:47:07.520Z,999.98
2018-02-16T11:48:07.480Z,999.77
2018-02-16T11:49:07.378Z,999.99
2018-02-16T11:50:07.309Z,999.95
2018-02-16T11:51:07.239Z,999.68
2018-02-16T11:52:07.169Z,999.72
2018-02-16T11:53:07.098Z,999.67
2018-02-16T11:54:07.027Z,999.63
2018-02-16T11:55:06.956Z,999.61
2018-02-16T11:56:06.885Z,999.57
2018-02-16T11:57:06.813Z,999.59
2018-02-16T11:58:06.742Z,999.57
2018-02-16T11:59:06.676Z,999.56
2018-02-16T12:00:06.598Z,999.55
2018-02-16T12:01:06.526Z,999.48
2018-02-16T12:02:06.453Z,999.55
2018-02-16T12:03:06.382Z,999.50
2018-02-16T12:04:06.306Z,999.53
2018-02-16T12:05:06.233Z,999.56
2018-02-16T12:06:06.159Z,999.49
2018-02-16T12:07:06.085Z,999.52
2018-02-16T12:08:06.016Z,999.51
2018-02-16T12:09:05.935Z,999.56
2018-02-16T12:10:05.860Z,999.59
2018-02-16T12:11:05.786Z,999.51
2018-02-16T12:12:05.709Z,999.58
2018-02-16T12:13:05.634Z,999.51
2018-02-16T12:14:05.558Z,999.51
2018-02-16T12:15:05.482Z,999.50
2018-02-16T12:16:05.406Z,999.46
2018-02-16T12:17:05.331Z,999.49
2018-02-16T12:18:05.253Z,999.52
2018-02-16T12:19:05.178Z,999.51
2018-02-16T12:20:05.099Z,999.52
2018-02-16T12:21:05.023Z,999.51
2018-02-16T12:22:04.949Z,999.56
2018-02-16T12:23:04.869Z,1000.06
2018-02-16T12:24:04.792Z,999.59
2018-02-16T12:25:04.715Z,999.58
2018-02-16T12:26:04.638Z,999.56
2018-02-16T12:27:04.561Z,999.52